sensor_id;sensor_type;location;lat;lon;timestamp;P1;durP1;ratioP1;P2;durP2;ratioP2
21418;SDS011;10870;51.384;10.316;2022-12-29T00:00:12;5.63;;;2.78;;
21418;SDS011;10870;51.384;10.316;2022-12-29T00:02:14;5.50;;;2.58;;
21418;SDS011;10870;51.384;10.316;2022-12-29T00:04:22;2.83;;;2.40;;
21418;SDS011;10870;51.384;10.316;2022-12-29T00:06:23;4.38;;;2.28;;
21418;SDS011;10870;51.384;10.316;2022-12-29T00:08:25;3.30;;;2.63;;
21418;SDS011;10870;51.384;10.316;2022-12-29T00:10:44;4.90;;;3.00;;
21418;SDS011;10870;51.384;10.316;2022-12-29T00:12:45;6.47;;;2.78;;
21418;SDS011;10870;51.384;10.316;2022-12-29T00:15:06;3.25;;;2.78;;
21418;SDS011;10870;51.384;10.316;2022-12-29T00:17:26;3.72;;;2.67;;
21418;SDS011;10870;51.384;10.316;2022-12-29T00:19:30;4.97;;;2.90;;
21418;SDS011;10870;51.384;10.316;2022-12-29T00:21:57;3.35;;;2.85;;
21418;SDS011;10870;51.384;10.316;2022-12-29T00:24:18;4.90;;;3.28;;
21418;SDS011;10870;51.384;10.316;2022-12-29T00:26:26;4.85;;;3.10;;
21418;SDS011;10870;51.384;10.316;2022-12-29T00:28:46;3.30;;;2.80;;
21418;SDS011;10870;51.384;10.316;2022-12-29T00:31:07;6.88;;;3.03;;
21418;SDS011;10870;51.384;10.316;2022-12-29T00:33:32;2.90;;;2.15;;
21418;SDS011;10870;51.384;10.316;2022-12-29T00:37:53;4.70;;;2.53;;
21418;SDS011;10870;51.384;10.316;2022-12-29T00:40:16;6.03;;;2.38;;
21418;SDS011;10870;51.384;10.316;2022-12-29T00:42:36;6.90;;;3.25;;
21418;SDS011;10870;51.384;10.316;2022-12-29T00:44:56;4.80;;;2.70;;
21418;SDS011;10870;51.384;10.316;2022-12-29T00:46:58;4.35;;;2.83;;
21418;SDS011;10870;51.384;10.316;2022-12-29T00:49:05;4.20;;;3.17;;
21418;SDS011;10870;51.384;10.316;2022-12-29T00:51:25;4.85;;;2.65;;
21418;SDS011;10870;51.384;10.316;2022-12-29T00:53:29;4.78;;;2.85;;
21418;SDS011;10870;51.384;10.316;2022-12-29T00:55:36;6.93;;;2.65;;
21418;SDS011;10870;51.384;10.316;2022-12-29T00:57:39;3.05;;;2.75;;
21418;SDS011;10870;51.384;10.316;2022-12-29T00:59:41;5.07;;;2.92;;
21418;SDS011;10870;51.384;10.316;2022-12-29T01:01:45;5.10;;;3.63;;
21418;SDS011;10870;51.384;10.316;2022-12-29T01:03:52;3.90;;;2.70;;
21418;SDS011;10870;51.384;10.316;2022-12-29T01:05:55;6.13;;;3.20;;
21418;SDS011;10870;51.384;10.316;2022-12-29T01:07:59;4.97;;;3.20;;
21418;SDS011;10870;51.384;10.316;2022-12-29T01:10:00;6.40;;;2.83;;
21418;SDS011;10870;51.384;10.316;2022-12-29T01:12:11;6.82;;;3.33;;
21418;SDS011;10870;51.384;10.316;2022-12-29T01:14:17;5.43;;;3.70;;
21418;SDS011;10870;51.384;10.316;2022-12-29T01:16:21;6.55;;;3.20;;
21418;SDS011;10870;51.384;10.316;2022-12-29T01:18:23;4.47;;;2.92;;
21418;SDS011;10870;51.384;10.316;2022-12-29T01:20:29;5.75;;;3.20;;
21418;SDS011;10870;51.384;10.316;2022-12-29T01:22:31;5.47;;;3.25;;
21418;SDS011;10870;51.384;10.316;2022-12-29T01:24:32;6.88;;;3.40;;
21418;SDS011;10870;51.384;10.316;2022-12-29T01:26:36;5.53;;;3.35;;
21418;SDS011;10870;51.384;10.316;2022-12-29T01:28:39;3.95;;;3.50;;
21418;SDS011;10870;51.384;10.316;2022-12-29T01:30:43;4.30;;;3.20;;
21418;SDS011;10870;51.384;10.316;2022-12-29T01:32:47;3.78;;;2.78;;
21418;SDS011;10870;51.384;10.316;2022-12-29T01:34:48;4.50;;;3.13;;
21418;SDS011;10870;51.384;10.316;2022-12-29T01:36:57;5.50;;;3.03;;
21418;SDS011;10870;51.384;10.316;2022-12-29T01:38:58;4.65;;;3.50;;
21418;SDS011;10870;51.384;10.316;2022-12-29T01:40:59;5.93;;;3.22;;
21418;SDS011;10870;51.384;10.316;2022-12-29T01:43:04;5.90;;;3.50;;
21418;SDS011;10870;51.384;10.316;2022-12-29T01:45:11;3.90;;;2.90;;
21418;SDS011;10870;51.384;10.316;2022-12-29T01:47:14;4.63;;;2.50;;
21418;SDS011;10870;51.384;10.316;2022-12-29T01:49:24;4.13;;;2.95;;
21418;SDS011;10870;51.384;10.316;2022-12-29T01:51:28;5.75;;;3.05;;
21418;SDS011;10870;51.384;10.316;2022-12-29T01:53:31;3.25;;;2.45;;
21418;SDS011;10870;51.384;10.316;2022-12-29T01:55:40;4.13;;;3.00;;
21418;SDS011;10870;51.384;10.316;2022-12-29T01:57:44;7.30;;;3.65;;
21418;SDS011;10870;51.384;10.316;2022-12-29T01:59:55;3.33;;;2.65;;
21418;SDS011;10870;51.384;10.316;2022-12-29T02:01:59;3.85;;;3.00;;
21418;SDS011;10870;51.384;10.316;2022-12-29T02:04:01;4.50;;;3.38;;
21418;SDS011;10870;51.384;10.316;2022-12-29T02:06:04;5.45;;;3.25;;
21418;SDS011;10870;51.384;10.316;2022-12-29T02:08:08;4.15;;;2.88;;
21418;SDS011;10870;51.384;10.316;2022-12-29T02:10:13;4.97;;;3.75;;
21418;SDS011;10870;51.384;10.316;2022-12-29T02:12:18;4.30;;;2.65;;
21418;SDS011;10870;51.384;10.316;2022-12-29T02:14:20;3.72;;;2.75;;
21418;SDS011;10870;51.384;10.316;2022-12-29T02:32:03;3.05;;;2.65;;
21418;SDS011;10870;51.384;10.316;2022-12-29T02:38:33;4.30;;;2.70;;
21418;SDS011;10870;51.384;10.316;2022-12-29T02:43:03;3.92;;;2.60;;
21418;SDS011;10870;51.384;10.316;2022-12-29T02:45:08;6.13;;;3.13;;
21418;SDS011;10870;51.384;10.316;2022-12-29T02:49:26;3.20;;;2.25;;
21418;SDS011;10870;51.384;10.316;2022-12-29T02:51:34;4.30;;;3.10;;
21418;SDS011;10870;51.384;10.316;2022-12-29T02:53:39;4.68;;;3.20;;
21418;SDS011;10870;51.384;10.316;2022-12-29T02:56:00;4.07;;;2.88;;
21418;SDS011;10870;51.384;10.316;2022-12-29T02:58:22;3.78;;;2.70;;
21418;SDS011;10870;51.384;10.316;2022-12-29T03:00:23;3.40;;;2.67;;
21418;SDS011;10870;51.384;10.316;2022-12-29T03:11:12;4.18;;;2.95;;
21418;SDS011;10870;51.384;10.316;2022-12-29T03:13:39;5.05;;;2.85;;
21418;SDS011;10870;51.384;10.316;2022-12-29T03:18:24;4.25;;;2.60;;
21418;SDS011;10870;51.384;10.316;2022-12-29T03:20:31;2.95;;;2.45;;
21418;SDS011;10870;51.384;10.316;2022-12-29T03:22:34;5.00;;;2.33;;
21418;SDS011;10870;51.384;10.316;2022-12-29T03:24:40;2.92;;;2.47;;
21418;SDS011;10870;51.384;10.316;2022-12-29T03:26:42;4.20;;;2.85;;
21418;SDS011;10870;51.384;10.316;2022-12-29T03:28:51;5.60;;;2.40;;
21418;SDS011;10870;51.384;10.316;2022-12-29T03:30:54;4.65;;;2.42;;
21418;SDS011;10870;51.384;10.316;2022-12-29T03:32:58;4.15;;;2.85;;
21418;SDS011;10870;51.384;10.316;2022-12-29T03:35:00;3.08;;;2.70;;
21418;SDS011;10870;51.384;10.316;2022-12-29T03:37:06;2.33;;;2.13;;
21418;SDS011;10870;51.384;10.316;2022-12-29T03:39:11;6.28;;;3.10;;
21418;SDS011;10870;51.384;10.316;2022-12-29T03:41:20;2.55;;;2.15;;
21418;SDS011;10870;51.384;10.316;2022-12-29T03:43:25;3.10;;;2.10;;
21418;SDS011;10870;51.384;10.316;2022-12-29T03:45:27;2.58;;;2.38;;
21418;SDS011;10870;51.384;10.316;2022-12-29T03:47:31;3.25;;;2.35;;
21418;SDS011;10870;51.384;10.316;2022-12-29T03:49:32;3.00;;;2.40;;
21418;SDS011;10870;51.384;10.316;2022-12-29T03:51:36;3.75;;;2.60;;
21418;SDS011;10870;51.384;10.316;2022-12-29T03:53:40;6.18;;;2.17;;
21418;SDS011;10870;51.384;10.316;2022-12-29T03:55:44;2.60;;;2.40;;
21418;SDS011;10870;51.384;10.316;2022-12-29T03:57:45;2.42;;;2.17;;
21418;SDS011;10870;51.384;10.316;2022-12-29T03:59:46;4.45;;;2.33;;
21418;SDS011;10870;51.384;10.316;2022-12-29T04:01:47;2.03;;;1.73;;
21418;SDS011;10870;51.384;10.316;2022-12-29T04:03:49;3.42;;;2.33;;
21418;SDS011;10870;51.384;10.316;2022-12-29T04:05:50;2.70;;;2.47;;
21418;SDS011;10870;51.384;10.316;2022-12-29T04:07:51;4.80;;;2.50;;
21418;SDS011;10870;51.384;10.316;2022-12-29T04:09:53;2.38;;;2.13;;
21418;SDS011;10870;51.384;10.316;2022-12-29T04:11:54;2.35;;;2.15;;
21418;SDS011;10870;51.384;10.316;2022-12-29T04:13:58;5.30;;;2.10;;
21418;SDS011;10870;51.384;10.316;2022-12-29T04:16:00;2.40;;;2.20;;
21418;SDS011;10870;51.384;10.316;2022-12-29T04:18:01;2.88;;;2.25;;
21418;SDS011;10870;51.384;10.316;2022-12-29T04:20:05;3.15;;;2.25;;
21418;SDS011;10870;51.384;10.316;2022-12-29T04:22:24;3.20;;;2.45;;
21418;SDS011;10870;51.384;10.316;2022-12-29T04:24:28;2.17;;;1.95;;
21418;SDS011;10870;51.384;10.316;2022-12-29T04:26:32;2.58;;;1.90;;
21418;SDS011;10870;51.384;10.316;2022-12-29T04:28:36;3.00;;;1.80;;
21418;SDS011;10870;51.384;10.316;2022-12-29T04:30:37;2.55;;;1.80;;
21418;SDS011;10870;51.384;10.316;2022-12-29T04:32:41;3.05;;;1.80;;
21418;SDS011;10870;51.384;10.316;2022-12-29T04:34:43;2.72;;;2.35;;
21418;SDS011;10870;51.384;10.316;2022-12-29T04:36:44;4.53;;;2.63;;
21418;SDS011;10870;51.384;10.316;2022-12-29T04:38:47;1.90;;;1.80;;
21418;SDS011;10870;51.384;10.316;2022-12-29T04:40:51;3.58;;;1.65;;
21418;SDS011;10870;51.384;10.316;2022-12-29T04:42:55;1.88;;;1.63;;
21418;SDS011;10870;51.384;10.316;2022-12-29T04:44:56;1.80;;;1.70;;
21418;SDS011;10870;51.384;10.316;2022-12-29T04:47:00;2.67;;;2.00;;
21418;SDS011;10870;51.384;10.316;2022-12-29T04:49:01;9.00;;;2.20;;
21418;SDS011;10870;51.384;10.316;2022-12-29T04:51:12;2.50;;;1.92;;
21418;SDS011;10870;51.384;10.316;2022-12-29T04:53:15;2.03;;;1.80;;
21418;SDS011;10870;51.384;10.316;2022-12-29T04:55:16;2.30;;;1.80;;
21418;SDS011;10870;51.384;10.316;2022-12-29T04:57:21;2.55;;;1.58;;
21418;SDS011;10870;51.384;10.316;2022-12-29T04:59:26;3.47;;;1.58;;
21418;SDS011;10870;51.384;10.316;2022-12-29T05:01:31;3.13;;;1.73;;
21418;SDS011;10870;51.384;10.316;2022-12-29T05:03:32;1.92;;;1.77;;
21418;SDS011;10870;51.384;10.316;2022-12-29T05:05:35;2.53;;;2.00;;
21418;SDS011;10870;51.384;10.316;2022-12-29T05:07:39;3.00;;;1.60;;
21418;SDS011;10870;51.384;10.316;2022-12-29T05:09:43;2.42;;;1.83;;
21418;SDS011;10870;51.384;10.316;2022-12-29T05:11:47;2.53;;;1.60;;
21418;SDS011;10870;51.384;10.316;2022-12-29T05:13:49;2.30;;;1.75;;
21418;SDS011;10870;51.384;10.316;2022-12-29T05:15:51;1.83;;;1.60;;
21418;SDS011;10870;51.384;10.316;2022-12-29T05:17:57;3.20;;;1.52;;
21418;SDS011;10870;51.384;10.316;2022-12-29T05:20:01;1.45;;;1.35;;
21418;SDS011;10870;51.384;10.316;2022-12-29T05:22:02;2.75;;;1.45;;
21418;SDS011;10870;51.384;10.316;2022-12-29T05:24:03;1.80;;;1.30;;
21418;SDS011;10870;51.384;10.316;2022-12-29T05:26:07;1.90;;;1.52;;
21418;SDS011;10870;51.384;10.316;2022-12-29T05:28:08;2.05;;;1.75;;
21418;SDS011;10870;51.384;10.316;2022-12-29T05:30:10;1.80;;;1.40;;
21418;SDS011;10870;51.384;10.316;2022-12-29T05:32:11;3.92;;;1.85;;
21418;SDS011;10870;51.384;10.316;2022-12-29T05:34:13;2.70;;;1.38;;
21418;SDS011;10870;51.384;10.316;2022-12-29T05:36:19;2.10;;;1.65;;
21418;SDS011;10870;51.384;10.316;2022-12-29T05:38:21;1.73;;;1.52;;
21418;SDS011;10870;51.384;10.316;2022-12-29T05:40:25;1.40;;;1.27;;
21418;SDS011;10870;51.384;10.316;2022-12-29T05:42:26;2.45;;;1.50;;
21418;SDS011;10870;51.384;10.316;2022-12-29T05:44:27;1.70;;;1.60;;
21418;SDS011;10870;51.384;10.316;2022-12-29T05:46:29;1.60;;;1.50;;
21418;SDS011;10870;51.384;10.316;2022-12-29T05:48:30;1.40;;;1.30;;
21418;SDS011;10870;51.384;10.316;2022-12-29T05:50:31;1.60;;;1.50;;
21418;SDS011;10870;51.384;10.316;2022-12-29T05:54:34;2.30;;;1.33;;
21418;SDS011;10870;51.384;10.316;2022-12-29T05:56:35;1.80;;;1.38;;
21418;SDS011;10870;51.384;10.316;2022-12-29T05:58:39;1.10;;;1.10;;
21418;SDS011;10870;51.384;10.316;2022-12-29T06:00:42;1.80;;;1.30;;
21418;SDS011;10870;51.384;10.316;2022-12-29T06:02:44;2.05;;;1.40;;
21418;SDS011;10870;51.384;10.316;2022-12-29T06:04:47;1.92;;;1.30;;
21418;SDS011;10870;51.384;10.316;2022-12-29T06:06:48;1.42;;;1.33;;
21418;SDS011;10870;51.384;10.316;2022-12-29T06:08:50;2.38;;;1.27;;
21418;SDS011;10870;51.384;10.316;2022-12-29T06:10:51;4.63;;;1.42;;
21418;SDS011;10870;51.384;10.316;2022-12-29T06:12:52;1.65;;;1.38;;
21418;SDS011;10870;51.384;10.316;2022-12-29T06:14:59;4.45;;;1.30;;
21418;SDS011;10870;51.384;10.316;2022-12-29T06:17:03;1.95;;;1.38;;
21418;SDS011;10870;51.384;10.316;2022-12-29T06:19:04;3.17;;;1.35;;
21418;SDS011;10870;51.384;10.316;2022-12-29T06:21:05;2.83;;;1.20;;
21418;SDS011;10870;51.384;10.316;2022-12-29T06:23:07;2.03;;;1.08;;
21418;SDS011;10870;51.384;10.316;2022-12-29T06:25:08;3.83;;;1.20;;
21418;SDS011;10870;51.384;10.316;2022-12-29T06:27:09;2.88;;;1.35;;
21418;SDS011;10870;51.384;10.316;2022-12-29T06:29:13;3.90;;;1.10;;
21418;SDS011;10870;51.384;10.316;2022-12-29T06:31:23;1.90;;;1.17;;
21418;SDS011;10870;51.384;10.316;2022-12-29T06:33:24;3.72;;;1.25;;
21418;SDS011;10870;51.384;10.316;2022-12-29T06:35:27;4.15;;;1.58;;
21418;SDS011;10870;51.384;10.316;2022-12-29T06:37:31;1.50;;;1.10;;
21418;SDS011;10870;51.384;10.316;2022-12-29T06:39:35;1.60;;;1.40;;
21418;SDS011;10870;51.384;10.316;2022-12-29T06:41:36;2.42;;;1.20;;
21418;SDS011;10870;51.384;10.316;2022-12-29T06:43:40;2.72;;;1.15;;
21418;SDS011;10870;51.384;10.316;2022-12-29T06:45:41;2.55;;;1.58;;
21418;SDS011;10870;51.384;10.316;2022-12-29T06:47:42;1.55;;;1.33;;
21418;SDS011;10870;51.384;10.316;2022-12-29T06:49:44;1.80;;;1.17;;
21418;SDS011;10870;51.384;10.316;2022-12-29T06:51:45;1.95;;;1.20;;
21418;SDS011;10870;51.384;10.316;2022-12-29T06:53:49;1.35;;;1.25;;
21418;SDS011;10870;51.384;10.316;2022-12-29T06:55:50;2.15;;;1.42;;
21418;SDS011;10870;51.384;10.316;2022-12-29T06:57:53;1.55;;;1.42;;
21418;SDS011;10870;51.384;10.316;2022-12-29T06:59:54;2.28;;;1.08;;
21418;SDS011;10870;51.384;10.316;2022-12-29T07:01:56;1.63;;;1.23;;
21418;SDS011;10870;51.384;10.316;2022-12-29T07:03:57;3.20;;;1.20;;
21418;SDS011;10870;51.384;10.316;2022-12-29T07:05:58;2.10;;;1.45;;
21418;SDS011;10870;51.384;10.316;2022-12-29T07:08:00;1.38;;;1.27;;
21418;SDS011;10870;51.384;10.316;2022-12-29T07:10:03;2.72;;;1.23;;
21418;SDS011;10870;51.384;10.316;2022-12-29T07:12:05;1.20;;;1.10;;
21418;SDS011;10870;51.384;10.316;2022-12-29T07:14:06;3.45;;;1.95;;
21418;SDS011;10870;51.384;10.316;2022-12-29T07:16:07;2.22;;;1.48;;
21418;SDS011;10870;51.384;10.316;2022-12-29T07:18:09;4.13;;;1.55;;
21418;SDS011;10870;51.384;10.316;2022-12-29T07:20:10;3.50;;;1.60;;
21418;SDS011;10870;51.384;10.316;2022-12-29T07:22:14;4.35;;;1.65;;
21418;SDS011;10870;51.384;10.316;2022-12-29T07:24:21;1.50;;;1.40;;
21418;SDS011;10870;51.384;10.316;2022-12-29T07:26:22;3.28;;;1.50;;
21418;SDS011;10870;51.384;10.316;2022-12-29T07:28:30;1.95;;;1.40;;
21418;SDS011;10870;51.384;10.316;2022-12-29T07:30:36;2.47;;;1.73;;
21418;SDS011;10870;51.384;10.316;2022-12-29T07:32:41;3.15;;;1.55;;
21418;SDS011;10870;51.384;10.316;2022-12-29T07:34:44;3.47;;;1.88;;
21418;SDS011;10870;51.384;10.316;2022-12-29T07:36:48;2.42;;;1.65;;
21418;SDS011;10870;51.384;10.316;2022-12-29T07:38:53;1.83;;;1.70;;
21418;SDS011;10870;51.384;10.316;2022-12-29T07:40:58;2.83;;;1.63;;
21418;SDS011;10870;51.384;10.316;2022-12-29T07:43:01;1.77;;;1.45;;
21418;SDS011;10870;51.384;10.316;2022-12-29T07:45:06;2.50;;;1.77;;
21418;SDS011;10870;51.384;10.316;2022-12-29T07:47:10;3.05;;;2.25;;
21418;SDS011;10870;51.384;10.316;2022-12-29T07:49:12;3.78;;;1.80;;
21418;SDS011;10870;51.384;10.316;2022-12-29T07:51:13;3.08;;;2.22;;
21418;SDS011;10870;51.384;10.316;2022-12-29T07:53:14;2.58;;;1.95;;
21418;SDS011;10870;51.384;10.316;2022-12-29T07:55:16;5.85;;;1.80;;
21418;SDS011;10870;51.384;10.316;2022-12-29T07:57:19;3.90;;;1.90;;
21418;SDS011;10870;51.384;10.316;2022-12-29T07:59:21;3.08;;;1.73;;
21418;SDS011;10870;51.384;10.316;2022-12-29T08:01:22;2.97;;;1.80;;
21418;SDS011;10870;51.384;10.316;2022-12-29T08:03:28;1.83;;;1.60;;
21418;SDS011;10870;51.384;10.316;2022-12-29T08:05:32;2.28;;;1.70;;
21418;SDS011;10870;51.384;10.316;2022-12-29T08:07:36;3.53;;;1.70;;
21418;SDS011;10870;51.384;10.316;2022-12-29T08:09:42;3.53;;;1.73;;
21418;SDS011;10870;51.384;10.316;2022-12-29T08:11:43;1.90;;;1.65;;
21418;SDS011;10870;51.384;10.316;2022-12-29T08:13:48;2.95;;;1.58;;
21418;SDS011;10870;51.384;10.316;2022-12-29T08:15:51;1.52;;;1.33;;
21418;SDS011;10870;51.384;10.316;2022-12-29T08:17:55;3.08;;;1.70;;
21418;SDS011;10870;51.384;10.316;2022-12-29T08:19:56;3.50;;;1.85;;
21418;SDS011;10870;51.384;10.316;2022-12-29T08:21:58;4.13;;;1.88;;
21418;SDS011;10870;51.384;10.316;2022-12-29T08:23:59;1.45;;;1.35;;
21418;SDS011;10870;51.384;10.316;2022-12-29T08:26:01;3.03;;;1.80;;
21418;SDS011;10870;51.384;10.316;2022-12-29T08:28:06;2.67;;;1.67;;
21418;SDS011;10870;51.384;10.316;2022-12-29T08:30:07;1.90;;;1.60;;
21418;SDS011;10870;51.384;10.316;2022-12-29T08:32:09;3.15;;;1.45;;
21418;SDS011;10870;51.384;10.316;2022-12-29T08:34:15;2.28;;;1.52;;
21418;SDS011;10870;51.384;10.316;2022-12-29T08:36:18;3.63;;;1.80;;
21418;SDS011;10870;51.384;10.316;2022-12-29T08:38:20;2.30;;;1.70;;
21418;SDS011;10870;51.384;10.316;2022-12-29T08:40:21;3.47;;;1.45;;
21418;SDS011;10870;51.384;10.316;2022-12-29T08:42:22;2.53;;;1.60;;
21418;SDS011;10870;51.384;10.316;2022-12-29T08:44:25;3.47;;;1.60;;
21418;SDS011;10870;51.384;10.316;2022-12-29T08:46:26;3.90;;;2.10;;
21418;SDS011;10870;51.384;10.316;2022-12-29T08:48:30;2.28;;;1.80;;
21418;SDS011;10870;51.384;10.316;2022-12-29T08:50:31;3.10;;;1.70;;
21418;SDS011;10870;51.384;10.316;2022-12-29T08:52:32;1.80;;;1.45;;
21418;SDS011;10870;51.384;10.316;2022-12-29T08:54:36;2.72;;;1.63;;
21418;SDS011;10870;51.384;10.316;2022-12-29T08:56:37;2.25;;;1.75;;
21418;SDS011;10870;51.384;10.316;2022-12-29T08:58:39;2.90;;;1.50;;
21418;SDS011;10870;51.384;10.316;2022-12-29T09:00:43;2.10;;;1.45;;
21418;SDS011;10870;51.384;10.316;2022-12-29T09:02:44;3.33;;;1.50;;
21418;SDS011;10870;51.384;10.316;2022-12-29T09:04:45;2.00;;;1.63;;
21418;SDS011;10870;51.384;10.316;2022-12-29T09:06:47;3.10;;;1.77;;
21418;SDS011;10870;51.384;10.316;2022-12-29T09:08:48;3.28;;;1.63;;
21418;SDS011;10870;51.384;10.316;2022-12-29T09:10:49;4.28;;;1.60;;
21418;SDS011;10870;51.384;10.316;2022-12-29T09:12:51;2.05;;;1.63;;
21418;SDS011;10870;51.384;10.316;2022-12-29T09:14:52;1.85;;;1.48;;
21418;SDS011;10870;51.384;10.316;2022-12-29T09:16:54;3.42;;;1.77;;
21418;SDS011;10870;51.384;10.316;2022-12-29T09:19:14;2.00;;;1.33;;
21418;SDS011;10870;51.384;10.316;2022-12-29T09:21:15;2.55;;;1.75;;
21418;SDS011;10870;51.384;10.316;2022-12-29T09:23:16;3.83;;;1.52;;
21418;SDS011;10870;51.384;10.316;2022-12-29T09:25:18;4.05;;;1.50;;
21418;SDS011;10870;51.384;10.316;2022-12-29T09:27:19;2.53;;;1.40;;
21418;SDS011;10870;51.384;10.316;2022-12-29T09:29:23;2.05;;;1.40;;
21418;SDS011;10870;51.384;10.316;2022-12-29T09:31:24;1.52;;;1.42;;
21418;SDS011;10870;51.384;10.316;2022-12-29T09:33:28;2.30;;;2.10;;
21418;SDS011;10870;51.384;10.316;2022-12-29T09:35:34;5.13;;;2.35;;
21418;SDS011;10870;51.384;10.316;2022-12-29T09:37:36;1.70;;;1.60;;
21418;SDS011;10870;51.384;10.316;2022-12-29T09:39:37;3.15;;;1.27;;
21418;SDS011;10870;51.384;10.316;2022-12-29T09:46:08;1.27;;;1.08;;
21418;SDS011;10870;51.384;10.316;2022-12-29T09:50:19;1.05;;;0.95;;
21418;SDS011;10870;51.384;10.316;2022-12-29T09:56:31;3.33;;;0.82;;
21418;SDS011;10870;51.384;10.316;2022-12-29T10:00:42;2.67;;;0.77;;
21418;SDS011;10870;51.384;10.316;2022-12-29T10:02:50;1.10;;;0.80;;
21418;SDS011;10870;51.384;10.316;2022-12-29T10:04:55;0.60;;;0.60;;
21418;SDS011;10870;51.384;10.316;2022-12-29T10:07:04;3.13;;;0.60;;
21418;SDS011;10870;51.384;10.316;2022-12-29T10:24:55;1.75;;;1.23;;
21418;SDS011;10870;51.384;10.316;2022-12-29T10:27:03;1.20;;;0.65;;
21418;SDS011;10870;51.384;10.316;2022-12-29T10:29:05;2.55;;;1.05;;
21418;SDS011;10870;51.384;10.316;2022-12-29T10:31:09;1.13;;;0.82;;
21418;SDS011;10870;51.384;10.316;2022-12-29T10:33:13;1.00;;;0.80;;
21418;SDS011;10870;51.384;10.316;2022-12-29T10:35:23;1.80;;;0.80;;
21418;SDS011;10870;51.384;10.316;2022-12-29T10:37:42;1.35;;;0.95;;
21418;SDS011;10870;51.384;10.316;2022-12-29T10:39:50;1.95;;;1.30;;
21418;SDS011;10870;51.384;10.316;2022-12-29T10:43:59;0.75;;;0.75;;
21418;SDS011;10870;51.384;10.316;2022-12-29T10:46:11;0.98;;;0.85;;
21418;SDS011;10870;51.384;10.316;2022-12-29T10:48:23;1.33;;;0.88;;
21418;SDS011;10870;51.384;10.316;2022-12-29T10:50:26;0.75;;;0.70;;
21418;SDS011;10870;51.384;10.316;2022-12-29T10:52:32;2.45;;;1.15;;
21418;SDS011;10870;51.384;10.316;2022-12-29T10:56:56;3.17;;;1.63;;
21418;SDS011;10870;51.384;10.316;2022-12-29T10:58:59;3.30;;;1.63;;
21418;SDS011;10870;51.384;10.316;2022-12-29T11:01:02;1.33;;;1.00;;
21418;SDS011;10870;51.384;10.316;2022-12-29T11:07:32;1.48;;;1.10;;
21418;SDS011;10870;51.384;10.316;2022-12-29T11:09:35;1.02;;;0.90;;
21418;SDS011;10870;51.384;10.316;2022-12-29T11:11:37;0.93;;;0.70;;
21418;SDS011;10870;51.384;10.316;2022-12-29T11:15:51;1.52;;;0.85;;
21418;SDS011;10870;51.384;10.316;2022-12-29T11:17:53;2.28;;;0.88;;
21418;SDS011;10870;51.384;10.316;2022-12-29T11:19:57;2.83;;;1.15;;
21418;SDS011;10870;51.384;10.316;2022-12-29T11:22:14;1.55;;;1.05;;
21418;SDS011;10870;51.384;10.316;2022-12-29T11:24:22;1.30;;;0.90;;
21418;SDS011;10870;51.384;10.316;2022-12-29T11:26:26;1.15;;;0.90;;
21418;SDS011;10870;51.384;10.316;2022-12-29T11:28:28;0.80;;;0.80;;
21418;SDS011;10870;51.384;10.316;2022-12-29T11:30:36;2.50;;;1.50;;
21418;SDS011;10870;51.384;10.316;2022-12-29T11:32:37;1.38;;;1.27;;
21418;SDS011;10870;51.384;10.316;2022-12-29T11:34:50;2.08;;;1.00;;
21418;SDS011;10870;51.384;10.316;2022-12-29T11:36:57;2.38;;;1.25;;
21418;SDS011;10870;51.384;10.316;2022-12-29T11:38:59;5.55;;;1.80;;
21418;SDS011;10870;51.384;10.316;2022-12-29T11:41:03;0.90;;;0.75;;
21418;SDS011;10870;51.384;10.316;2022-12-29T11:43:11;2.15;;;0.90;;
21418;SDS011;10870;51.384;10.316;2022-12-29T11:45:22;2.92;;;1.05;;
21418;SDS011;10870;51.384;10.316;2022-12-29T11:49:26;2.63;;;0.98;;
21418;SDS011;10870;51.384;10.316;2022-12-29T11:51:34;4.65;;;0.88;;
21418;SDS011;10870;51.384;10.316;2022-12-29T11:53:44;3.70;;;1.65;;
21418;SDS011;10870;51.384;10.316;2022-12-29T11:56:00;1.38;;;0.70;;
21418;SDS011;10870;51.384;10.316;2022-12-29T11:58:02;2.17;;;0.77;;
21418;SDS011;10870;51.384;10.316;2022-12-29T12:00:14;1.80;;;0.85;;
21418;SDS011;10870;51.384;10.316;2022-12-29T12:04:30;1.92;;;1.00;;
21418;SDS011;10870;51.384;10.316;2022-12-29T12:06:36;1.95;;;0.80;;
21418;SDS011;10870;51.384;10.316;2022-12-29T12:08:44;1.63;;;0.90;;
21418;SDS011;10870;51.384;10.316;2022-12-29T12:15:54;2.15;;;0.63;;
21418;SDS011;10870;51.384;10.316;2022-12-29T12:17:50;2.05;;;1.08;;
21418;SDS011;10870;51.384;10.316;2022-12-29T12:19:53;2.00;;;0.85;;
21418;SDS011;10870;51.384;10.316;2022-12-29T12:22:02;2.08;;;0.70;;
21418;SDS011;10870;51.384;10.316;2022-12-29T12:26:16;1.10;;;0.68;;
21418;SDS011;10870;51.384;10.316;2022-12-29T12:28:21;1.08;;;0.73;;
21418;SDS011;10870;51.384;10.316;2022-12-29T12:30:28;3.85;;;0.85;;
21418;SDS011;10870;51.384;10.316;2022-12-29T12:34:39;1.55;;;1.00;;
21418;SDS011;10870;51.384;10.316;2022-12-29T12:36:57;1.33;;;0.40;;
21418;SDS011;10870;51.384;10.316;2022-12-29T12:45:33;2.03;;;0.95;;
21418;SDS011;10870;51.384;10.316;2022-12-29T12:48:00;3.80;;;0.80;;
21418;SDS011;10870;51.384;10.316;2022-12-29T12:50:09;1.85;;;0.80;;
21418;SDS011;10870;51.384;10.316;2022-12-29T12:59:06;1.77;;;1.08;;
21418;SDS011;10870;51.384;10.316;2022-12-29T13:05:55;2.88;;;1.00;;
21418;SDS011;10870;51.384;10.316;2022-12-29T13:12:31;3.45;;;0.93;;
21418;SDS011;10870;51.384;10.316;2022-12-29T13:23:45;1.02;;;0.73;;
21418;SDS011;10870;51.384;10.316;2022-12-29T13:30:04;3.35;;;1.00;;
21418;SDS011;10870;51.384;10.316;2022-12-29T13:32:18;1.70;;;0.95;;
21418;SDS011;10870;51.384;10.316;2022-12-29T13:36:34;2.88;;;0.90;;
21418;SDS011;10870;51.384;10.316;2022-12-29T13:38:38;2.20;;;0.90;;
21418;SDS011;10870;51.384;10.316;2022-12-29T13:40:41;3.60;;;0.90;;
21418;SDS011;10870;51.384;10.316;2022-12-29T13:42:48;3.75;;;0.80;;
21418;SDS011;10870;51.384;10.316;2022-12-29T13:46:58;3.63;;;1.52;;
21418;SDS011;10870;51.384;10.316;2022-12-29T13:49:10;3.20;;;1.02;;
21418;SDS011;10870;51.384;10.316;2022-12-29T13:51:13;2.75;;;1.20;;
21418;SDS011;10870;51.384;10.316;2022-12-29T13:59:59;4.85;;;1.30;;
21418;SDS011;10870;51.384;10.316;2022-12-29T14:02:03;2.30;;;1.00;;
21418;SDS011;10870;51.384;10.316;2022-12-29T14:04:12;6.63;;;1.30;;
21418;SDS011;10870;51.384;10.316;2022-12-29T14:08:24;5.50;;;1.00;;
21418;SDS011;10870;51.384;10.316;2022-12-29T14:14:33;4.03;;;1.35;;
21418;SDS011;10870;51.384;10.316;2022-12-29T14:16:42;1.05;;;0.93;;
21418;SDS011;10870;51.384;10.316;2022-12-29T14:18:44;2.67;;;1.10;;
21418;SDS011;10870;51.384;10.316;2022-12-29T14:25:23;3.95;;;0.93;;
21418;SDS011;10870;51.384;10.316;2022-12-29T14:31:33;2.42;;;1.38;;
21418;SDS011;10870;51.384;10.316;2022-12-29T14:33:41;3.10;;;2.10;;
21418;SDS011;10870;51.384;10.316;2022-12-29T14:35:46;2.22;;;1.08;;
21418;SDS011;10870;51.384;10.316;2022-12-29T14:37:49;4.13;;;1.50;;
21418;SDS011;10870;51.384;10.316;2022-12-29T14:44:17;3.75;;;1.10;;
21418;SDS011;10870;51.384;10.316;2022-12-29T14:46:21;5.72;;;2.38;;
21418;SDS011;10870;51.384;10.316;2022-12-29T14:48:36;2.97;;;1.33;;
21418;SDS011;10870;51.384;10.316;2022-12-29T14:50:42;1.52;;;0.98;;
21418;SDS011;10870;51.384;10.316;2022-12-29T14:52:56;3.45;;;1.25;;
21418;SDS011;10870;51.384;10.316;2022-12-29T14:57:19;3.85;;;1.65;;
21418;SDS011;10870;51.384;10.316;2022-12-29T14:59:20;3.55;;;1.10;;
21418;SDS011;10870;51.384;10.316;2022-12-29T15:03:31;2.70;;;1.17;;